sensor_id;sensor_type;location;lat;lon;timestamp;P1;durP1;ratioP1;P2;durP2;ratioP2
20038;SDS011;21737;42.868;25.320;2023-04-01T00:01:40;12.53;;;6.50;;
20038;SDS011;21737;42.868;25.320;2023-04-01T00:04:42;11.27;;;7.40;;
20038;SDS011;21737;42.868;25.320;2023-04-01T00:07:44;11.03;;;6.80;;
20038;SDS011;21737;42.868;25.320;2023-04-01T00:10:47;17.73;;;7.77;;
20038;SDS011;21737;42.868;25.320;2023-04-01T00:13:49;13.50;;;7.53;;
20038;SDS011;21737;42.868;25.320;2023-04-01T00:16:50;13.30;;;7.37;;
20038;SDS011;21737;42.868;25.320;2023-04-01T00:19:57;13.27;;;7.73;;
20038;SDS011;21737;42.868;25.320;2023-04-01T00:22:58;11.27;;;7.17;;
20038;SDS011;21737;42.868;25.320;2023-04-01T00:26:01;10.60;;;7.03;;
20038;SDS011;21737;42.868;25.320;2023-04-01T00:29:03;12.00;;;6.53;;
20038;SDS011;21737;42.868;25.320;2023-04-01T00:32:04;12.87;;;6.97;;
20038;SDS011;21737;42.868;25.320;2023-04-01T00:35:07;11.43;;;6.90;;
20038;SDS011;21737;42.868;25.320;2023-04-01T00:38:08;11.73;;;6.43;;
20038;SDS011;21737;42.868;25.320;2023-04-01T00:41:13;15.07;;;7.60;;
20038;SDS011;21737;42.868;25.320;2023-04-01T00:44:20;15.70;;;7.50;;
20038;SDS011;21737;42.868;25.320;2023-04-01T00:47:22;12.93;;;7.00;;
20038;SDS011;21737;42.868;25.320;2023-04-01T00:50:25;11.57;;;6.70;;
20038;SDS011;21737;42.868;25.320;2023-04-01T00:53:28;11.77;;;6.60;;
20038;SDS011;21737;42.868;25.320;2023-04-01T00:56:32;10.27;;;6.40;;
20038;SDS011;21737;42.868;25.320;2023-04-01T00:59:37;14.90;;;7.13;;
20038;SDS011;21737;42.868;25.320;2023-04-01T01:02:41;12.07;;;7.00;;
20038;SDS011;21737;42.868;25.320;2023-04-01T01:21:21;11.73;;;5.90;;
20038;SDS011;21737;42.868;25.320;2023-04-01T01:24:30;9.60;;;6.20;;
20038;SDS011;21737;42.868;25.320;2023-04-01T01:27:37;10.80;;;5.87;;
20038;SDS011;21737;42.868;25.320;2023-04-01T01:30:47;9.73;;;5.67;;
20038;SDS011;21737;42.868;25.320;2023-04-01T01:36:55;10.93;;;5.53;;
20038;SDS011;21737;42.868;25.320;2023-04-01T01:40:00;15.50;;;5.57;;
20038;SDS011;21737;42.868;25.320;2023-04-01T01:43:05;10.43;;;5.40;;
20038;SDS011;21737;42.868;25.320;2023-04-01T01:46:12;9.47;;;5.20;;
20038;SDS011;21737;42.868;25.320;2023-04-01T01:49:15;10.03;;;6.07;;
20038;SDS011;21737;42.868;25.320;2023-04-01T01:52:18;12.47;;;5.50;;
20038;SDS011;21737;42.868;25.320;2023-04-01T01:55:25;9.87;;;5.30;;
20038;SDS011;21737;42.868;25.320;2023-04-01T02:01:33;10.80;;;6.27;;
20038;SDS011;21737;42.868;25.320;2023-04-01T02:04:43;9.87;;;6.37;;
20038;SDS011;21737;42.868;25.320;2023-04-01T02:07:47;9.33;;;5.93;;
20038;SDS011;21737;42.868;25.320;2023-04-01T02:10:58;11.40;;;5.33;;
20038;SDS011;21737;42.868;25.320;2023-04-01T02:14:10;9.17;;;6.10;;
20038;SDS011;21737;42.868;25.320;2023-04-01T02:17:20;14.43;;;6.67;;
20038;SDS011;21737;42.868;25.320;2023-04-01T02:20:26;14.27;;;7.03;;
20038;SDS011;21737;42.868;25.320;2023-04-01T02:23:29;18.30;;;10.03;;
20038;SDS011;21737;42.868;25.320;2023-04-01T02:26:31;20.63;;;13.13;;
20038;SDS011;21737;42.868;25.320;2023-04-01T02:29:33;15.97;;;9.50;;
20038;SDS011;21737;42.868;25.320;2023-04-01T02:32:35;10.70;;;5.73;;
20038;SDS011;21737;42.868;25.320;2023-04-01T02:35:39;13.67;;;6.87;;
20038;SDS011;21737;42.868;25.320;2023-04-01T02:38:41;12.53;;;6.73;;
20038;SDS011;21737;42.868;25.320;2023-04-01T02:41:44;16.07;;;6.97;;
20038;SDS011;21737;42.868;25.320;2023-04-01T02:44:46;12.10;;;7.10;;
20038;SDS011;21737;42.868;25.320;2023-04-01T02:47:47;13.93;;;7.90;;
20038;SDS011;21737;42.868;25.320;2023-04-01T02:50:49;13.33;;;8.43;;
20038;SDS011;21737;42.868;25.320;2023-04-01T02:53:51;14.90;;;7.47;;
20038;SDS011;21737;42.868;25.320;2023-04-01T02:56:53;15.30;;;7.77;;
20038;SDS011;21737;42.868;25.320;2023-04-01T02:59:54;13.57;;;7.40;;
20038;SDS011;21737;42.868;25.320;2023-04-01T03:02:56;11.53;;;7.63;;
20038;SDS011;21737;42.868;25.320;2023-04-01T03:06:04;10.87;;;7.23;;
20038;SDS011;21737;42.868;25.320;2023-04-01T03:09:06;11.67;;;7.60;;
20038;SDS011;21737;42.868;25.320;2023-04-01T03:12:08;16.70;;;8.27;;
20038;SDS011;21737;42.868;25.320;2023-04-01T03:15:20;15.27;;;7.70;;
20038;SDS011;21737;42.868;25.320;2023-04-01T03:18:22;14.83;;;7.30;;
20038;SDS011;21737;42.868;25.320;2023-04-01T03:21:23;14.83;;;8.10;;
20038;SDS011;21737;42.868;25.320;2023-04-01T03:24:25;13.23;;;7.47;;
20038;SDS011;21737;42.868;25.320;2023-04-01T03:27:27;9.50;;;5.67;;
20038;SDS011;21737;42.868;25.320;2023-04-01T03:30:29;8.37;;;5.60;;
20038;SDS011;21737;42.868;25.320;2023-04-01T03:33:33;12.13;;;7.00;;
20038;SDS011;21737;42.868;25.320;2023-04-01T03:36:34;10.63;;;6.93;;
20038;SDS011;21737;42.868;25.320;2023-04-01T03:39:36;13.27;;;7.77;;
20038;SDS011;21737;42.868;25.320;2023-04-01T03:42:38;13.77;;;7.50;;
20038;SDS011;21737;42.868;25.320;2023-04-01T03:45:44;11.13;;;6.83;;
20038;SDS011;21737;42.868;25.320;2023-04-01T03:48:47;11.40;;;7.47;;
20038;SDS011;21737;42.868;25.320;2023-04-01T03:51:48;11.90;;;8.07;;
20038;SDS011;21737;42.868;25.320;2023-04-01T03:54:51;14.60;;;7.07;;
20038;SDS011;21737;42.868;25.320;2023-04-01T03:57:52;19.40;;;7.03;;
20038;SDS011;21737;42.868;25.320;2023-04-01T04:00:54;11.20;;;6.43;;
20038;SDS011;21737;42.868;25.320;2023-04-01T04:03:56;11.57;;;6.77;;
20038;SDS011;21737;42.868;25.320;2023-04-01T04:06:58;18.50;;;9.40;;
20038;SDS011;21737;42.868;25.320;2023-04-01T04:10:03;16.53;;;7.57;;
20038;SDS011;21737;42.868;25.320;2023-04-01T04:13:04;16.63;;;8.20;;
20038;SDS011;21737;42.868;25.320;2023-04-01T04:16:11;16.73;;;8.40;;
20038;SDS011;21737;42.868;25.320;2023-04-01T04:19:18;13.57;;;7.67;;
20038;SDS011;21737;42.868;25.320;2023-04-01T04:22:19;15.93;;;8.23;;
20038;SDS011;21737;42.868;25.320;2023-04-01T04:25:21;17.80;;;9.50;;
20038;SDS011;21737;42.868;25.320;2023-04-01T04:28:23;14.03;;;8.33;;
20038;SDS011;21737;42.868;25.320;2023-04-01T04:31:26;17.43;;;7.60;;
20038;SDS011;21737;42.868;25.320;2023-04-01T04:34:31;18.87;;;9.20;;
20038;SDS011;21737;42.868;25.320;2023-04-01T04:37:33;18.43;;;9.80;;
20038;SDS011;21737;42.868;25.320;2023-04-01T04:40:38;21.30;;;10.00;;
20038;SDS011;21737;42.868;25.320;2023-04-01T04:43:40;18.97;;;10.00;;
20038;SDS011;21737;42.868;25.320;2023-04-01T04:46:42;16.57;;;9.07;;
20038;SDS011;21737;42.868;25.320;2023-04-01T04:49:47;15.97;;;9.03;;
20038;SDS011;21737;42.868;25.320;2023-04-01T04:52:49;17.67;;;10.10;;
20038;SDS011;21737;42.868;25.320;2023-04-01T04:55:52;16.70;;;9.37;;
20038;SDS011;21737;42.868;25.320;2023-04-01T04:59:16;14.93;;;8.53;;
20038;SDS011;21737;42.868;25.320;2023-04-01T05:02:29;15.63;;;8.70;;
20038;SDS011;21737;42.868;25.320;2023-04-01T05:05:31;17.87;;;8.93;;
20038;SDS011;21737;42.868;25.320;2023-04-01T05:08:33;16.70;;;9.40;;
20038;SDS011;21737;42.868;25.320;2023-04-01T05:11:35;22.43;;;10.17;;
20038;SDS011;21737;42.868;25.320;2023-04-01T05:14:37;21.47;;;11.27;;
20038;SDS011;21737;42.868;25.320;2023-04-01T05:17:43;16.60;;;10.17;;
20038;SDS011;21737;42.868;25.320;2023-04-01T05:20:46;18.43;;;10.73;;
20038;SDS011;21737;42.868;25.320;2023-04-01T05:23:47;17.67;;;9.50;;
20038;SDS011;21737;42.868;25.320;2023-04-01T05:26:49;17.50;;;9.93;;
20038;SDS011;21737;42.868;25.320;2023-04-01T05:29:51;18.07;;;10.67;;
20038;SDS011;21737;42.868;25.320;2023-04-01T05:33:29;18.40;;;10.80;;
20038;SDS011;21737;42.868;25.320;2023-04-01T05:36:31;21.57;;;12.33;;
20038;SDS011;21737;42.868;25.320;2023-04-01T05:39:39;22.43;;;11.53;;
20038;SDS011;21737;42.868;25.320;2023-04-01T05:42:42;15.53;;;9.17;;
20038;SDS011;21737;42.868;25.320;2023-04-01T05:45:43;20.17;;;10.70;;
20038;SDS011;21737;42.868;25.320;2023-04-01T05:48:48;23.23;;;13.37;;
20038;SDS011;21737;42.868;25.320;2023-04-01T05:51:51;22.47;;;13.13;;
20038;SDS011;21737;42.868;25.320;2023-04-01T05:54:53;29.53;;;15.33;;
20038;SDS011;21737;42.868;25.320;2023-04-01T05:57:54;29.70;;;16.90;;
20038;SDS011;21737;42.868;25.320;2023-04-01T06:01:00;25.67;;;13.60;;
20038;SDS011;21737;42.868;25.320;2023-04-01T06:04:14;25.83;;;15.80;;
20038;SDS011;21737;42.868;25.320;2023-04-01T06:07:17;32.83;;;17.37;;
20038;SDS011;21737;42.868;25.320;2023-04-01T06:10:19;35.17;;;19.73;;
20038;SDS011;21737;42.868;25.320;2023-04-01T06:29:54;37.13;;;21.63;;
20038;SDS011;21737;42.868;25.320;2023-04-01T06:35:56;39.93;;;23.20;;
20038;SDS011;21737;42.868;25.320;2023-04-01T06:46:06;41.17;;;22.27;;
20038;SDS011;21737;42.868;25.320;2023-04-01T06:53:10;23.90;;;14.37;;
20038;SDS011;21737;42.868;25.320;2023-04-01T06:56:32;20.20;;;10.90;;
20038;SDS011;21737;42.868;25.320;2023-04-01T06:59:42;41.60;;;29.47;;
20038;SDS011;21737;42.868;25.320;2023-04-01T07:02:53;26.97;;;18.83;;
20038;SDS011;21737;42.868;25.320;2023-04-01T07:05:57;30.00;;;17.63;;
20038;SDS011;21737;42.868;25.320;2023-04-01T07:09:04;24.10;;;13.57;;
20038;SDS011;21737;42.868;25.320;2023-04-01T07:15:58;17.80;;;11.40;;
20038;SDS011;21737;42.868;25.320;2023-04-01T07:26:22;12.90;;;8.70;;
20038;SDS011;21737;42.868;25.320;2023-04-01T07:29:42;21.13;;;11.00;;
20038;SDS011;21737;42.868;25.320;2023-04-01T07:33:07;21.37;;;12.63;;
20038;SDS011;21737;42.868;25.320;2023-04-01T07:36:20;24.03;;;13.77;;
20038;SDS011;21737;42.868;25.320;2023-04-01T07:56:10;11.57;;;5.57;;
20038;SDS011;21737;42.868;25.320;2023-04-01T08:05:41;8.23;;;3.40;;
20038;SDS011;21737;42.868;25.320;2023-04-01T08:21:57;9.17;;;3.50;;
20038;SDS011;21737;42.868;25.320;2023-04-01T08:25:01;7.07;;;3.50;;
20038;SDS011;21737;42.868;25.320;2023-04-01T08:28:09;5.73;;;3.40;;
20038;SDS011;21737;42.868;25.320;2023-04-01T08:31:13;6.10;;;4.17;;
20038;SDS011;21737;42.868;25.320;2023-04-01T08:34:20;6.33;;;4.27;;
20038;SDS011;21737;42.868;25.320;2023-04-01T08:37:25;8.93;;;3.33;;
20038;SDS011;21737;42.868;25.320;2023-04-01T08:44:23;6.67;;;3.77;;
20038;SDS011;21737;42.868;25.320;2023-04-01T09:00:04;7.57;;;4.53;;
20038;SDS011;21737;42.868;25.320;2023-04-01T09:24:03;9.07;;;3.40;;
20038;SDS011;21737;42.868;25.320;2023-04-01T09:40:11;6.47;;;2.80;;
20038;SDS011;21737;42.868;25.320;2023-04-01T10:16:03;7.20;;;3.43;;
20038;SDS011;21737;42.868;25.320;2023-04-01T10:32:19;9.07;;;4.50;;
20038;SDS011;21737;42.868;25.320;2023-04-01T10:55:37;6.80;;;3.30;;
20038;SDS011;21737;42.868;25.320;2023-04-01T10:59:47;6.47;;;3.50;;
20038;SDS011;21737;42.868;25.320;2023-04-01T11:19:48;5.83;;;3.10;;
20038;SDS011;21737;42.868;25.320;2023-04-01T11:26:06;5.47;;;2.77;;
20038;SDS011;21737;42.868;25.320;2023-04-01T11:33:12;7.33;;;3.47;;
20038;SDS011;21737;42.868;25.320;2023-04-01T11:43:21;10.97;;;3.70;;
20038;SDS011;21737;42.868;25.320;2023-04-01T11:49:57;7.93;;;3.27;;
20038;SDS011;21737;42.868;25.320;2023-04-01T11:53:23;7.57;;;3.20;;
20038;SDS011;21737;42.868;25.320;2023-04-01T11:56:38;7.20;;;2.97;;
20038;SDS011;21737;42.868;25.320;2023-04-01T12:08:52;11.43;;;3.73;;
20038;SDS011;21737;42.868;25.320;2023-04-01T12:15:35;10.50;;;4.30;;
20038;SDS011;21737;42.868;25.320;2023-04-01T12:18:54;13.33;;;4.53;;
20038;SDS011;21737;42.868;25.320;2023-04-01T12:31:34;10.60;;;4.50;;
20038;SDS011;21737;42.868;25.320;2023-04-01T12:35:00;8.10;;;4.40;;
20038;SDS011;21737;42.868;25.320;2023-04-01T13:16:39;11.93;;;4.03;;
20038;SDS011;21737;42.868;25.320;2023-04-01T13:32:26;9.80;;;4.83;;
20038;SDS011;21737;42.868;25.320;2023-04-01T13:35:46;13.53;;;5.17;;
20038;SDS011;21737;42.868;25.320;2023-04-01T13:42:49;9.70;;;4.40;;
20038;SDS011;21737;42.868;25.320;2023-04-01T13:55:23;10.83;;;3.93;;
20038;SDS011;21737;42.868;25.320;2023-04-01T14:11:17;12.63;;;4.87;;
20038;SDS011;21737;42.868;25.320;2023-04-01T14:36:47;11.53;;;5.03;;
20038;SDS011;21737;42.868;25.320;2023-04-01T14:52:31;8.27;;;4.80;;
20038;SDS011;21737;42.868;25.320;2023-04-01T14:58:44;15.33;;;8.90;;
20038;SDS011;21737;42.868;25.320;2023-04-01T15:04:54;13.23;;;6.90;;
20038;SDS011;21737;42.868;25.320;2023-04-01T15:11:26;26.23;;;11.37;;
20038;SDS011;21737;42.868;25.320;2023-04-01T15:14:34;15.90;;;8.07;;
20038;SDS011;21737;42.868;25.320;2023-04-01T15:45:51;15.47;;;8.33;;
20038;SDS011;21737;42.868;25.320;2023-04-01T16:21:06;11.53;;;6.43;;
20038;SDS011;21737;42.868;25.320;2023-04-01T16:27:18;18.00;;;12.23;;
20038;SDS011;21737;42.868;25.320;2023-04-01T16:30:37;15.83;;;11.10;;
20038;SDS011;21737;42.868;25.320;2023-04-01T16:36:45;20.83;;;12.50;;
20038;SDS011;21737;42.868;25.320;2023-04-01T16:55:21;22.17;;;15.20;;
20038;SDS011;21737;42.868;25.320;2023-04-01T16:58:24;31.47;;;21.03;;
20038;SDS011;21737;42.868;25.320;2023-04-01T17:01:27;32.97;;;21.80;;
20038;SDS011;21737;42.868;25.320;2023-04-01T17:11:07;31.60;;;21.20;;
20038;SDS011;21737;42.868;25.320;2023-04-01T17:23:47;40.27;;;26.13;;
20038;SDS011;21737;42.868;25.320;2023-04-01T17:36:16;46.50;;;29.17;;
20038;SDS011;21737;42.868;25.320;2023-04-01T17:42:43;40.57;;;24.07;;
20038;SDS011;21737;42.868;25.320;2023-04-01T17:45:57;133.43;;;48.60;;
20038;SDS011;21737;42.868;25.320;2023-04-01T17:49:03;94.43;;;43.40;;
20038;SDS011;21737;42.868;25.320;2023-04-01T17:55:39;39.63;;;23.73;;
20038;SDS011;21737;42.868;25.320;2023-04-01T18:11:34;29.00;;;17.70;;
20038;SDS011;21737;42.868;25.320;2023-04-01T18:14:50;10.23;;;5.13;;
20038;SDS011;21737;42.868;25.320;2023-04-01T18:17:59;7.50;;;3.80;;
20038;SDS011;21737;42.868;25.320;2023-04-01T18:27:23;7.70;;;4.93;;
20038;SDS011;21737;42.868;25.320;2023-04-01T18:30:26;4.93;;;3.17;;
20038;SDS011;21737;42.868;25.320;2023-04-01T18:39:47;3.40;;;2.07;;
20038;SDS011;21737;42.868;25.320;2023-04-01T18:45:58;3.87;;;2.60;;
20038;SDS011;21737;42.868;25.320;2023-04-01T18:49:05;3.60;;;2.50;;
20038;SDS011;21737;42.868;25.320;2023-04-01T18:55:30;6.13;;;3.80;;
20038;SDS011;21737;42.868;25.320;2023-04-01T19:04:42;19.13;;;9.03;;
20038;SDS011;21737;42.868;25.320;2023-04-01T19:07:54;25.23;;;13.70;;
20038;SDS011;21737;42.868;25.320;2023-04-01T19:20:29;26.90;;;15.07;;
20038;SDS011;21737;42.868;25.320;2023-04-01T19:30:18;10.20;;;7.50;;
20038;SDS011;21737;42.868;25.320;2023-04-01T19:36:31;14.37;;;10.10;;
20038;SDS011;21737;42.868;25.320;2023-04-01T19:49:20;15.83;;;11.47;;
20038;SDS011;21737;42.868;25.320;2023-04-01T19:52:29;12.83;;;9.27;;
20038;SDS011;21737;42.868;25.320;2023-04-01T19:58:48;21.47;;;14.57;;
20038;SDS011;21737;42.868;25.320;2023-04-01T20:01:56;25.20;;;17.10;;
20038;SDS011;21737;42.868;25.320;2023-04-01T20:05:01;22.03;;;14.83;;
20038;SDS011;21737;42.868;25.320;2023-04-01T20:14:51;29.33;;;20.63;;
20038;SDS011;21737;42.868;25.320;2023-04-01T20:17:53;27.17;;;16.43;;
20038;SDS011;21737;42.868;25.320;2023-04-01T20:21:00;17.43;;;11.27;;
20038;SDS011;21737;42.868;25.320;2023-04-01T20:24:14;19.63;;;12.60;;
20038;SDS011;21737;42.868;25.320;2023-04-01T20:27:20;17.57;;;12.23;;
20038;SDS011;21737;42.868;25.320;2023-04-01T20:53:02;10.90;;;7.07;;
20038;SDS011;21737;42.868;25.320;2023-04-01T21:12:31;15.40;;;9.93;;
20038;SDS011;21737;42.868;25.320;2023-04-01T21:31:46;14.57;;;9.87;;
20038;SDS011;21737;42.868;25.320;2023-04-01T21:44:36;14.87;;;10.90;;
20038;SDS011;21737;42.868;25.320;2023-04-01T22:06:30;13.57;;;8.30;;
20038;SDS011;21737;42.868;25.320;2023-04-01T22:09:35;8.30;;;6.60;;
20038;SDS011;21737;42.868;25.320;2023-04-01T22:16:10;11.27;;;6.93;;
20038;SDS011;21737;42.868;25.320;2023-04-01T22:25:21;11.27;;;7.33;;
20038;SDS011;21737;42.868;25.320;2023-04-01T22:28:29;10.83;;;7.20;;
20038;SDS011;21737;42.868;25.320;2023-04-01T22:31:57;13.33;;;8.97;;
20038;SDS011;21737;42.868;25.320;2023-04-01T22:41:13;7.90;;;6.03;;
20038;SDS011;21737;42.868;25.320;2023-04-01T22:50:50;8.83;;;6.40;;
20038;SDS011;21737;42.868;25.320;2023-04-01T22:57:07;13.77;;;8.03;;
20038;SDS011;21737;42.868;25.320;2023-04-01T23:03:21;10.30;;;5.37;;
20038;SDS011;21737;42.868;25.320;2023-04-01T23:06:27;9.77;;;6.60;;
20038;SDS011;21737;42.868;25.320;2023-04-01T23:09:33;9.63;;;5.90;;
20038;SDS011;21737;42.868;25.320;2023-04-01T23:12:35;8.53;;;6.17;;
20038;SDS011;21737;42.868;25.320;2023-04-01T23:15:37;9.63;;;6.30;;
20038;SDS011;21737;42.868;25.320;2023-04-01T23:18:49;10.47;;;6.40;;
20038;SDS011;21737;42.868;25.320;2023-04-01T23:22:15;6.37;;;5.23;;
20038;SDS011;21737;42.868;25.320;2023-04-01T23:34:34;11.63;;;7.27;;
20038;SDS011;21737;42.868;25.320;2023-04-01T23:37:36;8.93;;;5.33;;
20038;SDS011;21737;42.868;25.320;2023-04-01T23:40:38;8.17;;;5.70;;
20038;SDS011;21737;42.868;25.320;2023-04-01T23:43:40;7.20;;;4.37;;
20038;SDS011;21737;42.868;25.320;2023-04-01T23:46:44;10.60;;;6.53;;
20038;SDS011;21737;42.868;25.320;2023-04-01T23:49:48;9.37;;;6.00;;
20038;SDS011;21737;42.868;25.320;2023-04-01T23:52:53;12.90;;;7.67;;
20038;SDS011;21737;42.868;25.320;2023-04-01T23:55:56;5.17;;;3.53;;
20038;SDS011;21737;42.868;25.320;2023-04-01T23:58:58;8.47;;;6.27;;
